Time;durP1;ratioP1;P1;durP2;ratioP2;P2;SDS_P1;SDS_P2;PMS_P1;PMS_P2;Temp;Humidity;BMP_temperature;BMP_pressure;BME280_temperature;BME280_humidity;BME280_pressure;Samples;Min_cycle;Max_cycle;Signal;HPM_P1;HPM_P2
2023/03/01 00:02:17;;;;;;;171.40;63.92;;;;;;;;;;5093806;28;20111;-67
2023/03/01 00:04:43;;;;;;;186.95;68.72;;;;;;;;;;5094083;28;20398;-68
2023/03/01 00:07:08;;;;;;;165.15;63.53;;;;;;;;;;5093548;28;20035;-68
2023/03/01 00:09:35;;;;;;;168.90;57.83;;;;;;;;;;5093899;28;20023;-69
2023/03/01 00:12:00;;;;;;;165.82;55.00;;;;;;;;;;5093758;28;20103;-68
2023/03/01 00:14:26;;;;;;;164.15;55.30;;;;;;;;;;5093456;28;20493;-67
2023/03/01 00:16:51;;;;;;;174.88;56.55;;;;;;;;;;5093627;28;20023;-68
2023/03/01 00:19:19;;;;;;;145.80;47.90;;;;;;;;;;5093566;28;20068;-69
2023/03/01 00:21:45;;;;;;;159.30;51.65;;;;;;;;;;5093647;28;20444;-68
2023/03/01 00:24:10;;;;;;;141.38;50.17;;;;;;;;;;5093694;28;20020;-69
2023/03/01 00:26:36;;;;;;;162.25;54.63;;;;;;;;;;5093444;28;20043;-69
2023/03/01 00:29:01;;;;;;;159.30;56.05;;;;;;;;;;5093508;28;20032;-67
2023/03/01 00:31:29;;;;;;;130.13;49.33;;;;;;;;;;5093322;28;20375;-68
2023/03/01 00:33:57;;;;;;;151.88;52.38;;;;;;;;;;5093488;28;20032;-67
2023/03/01 00:36:24;;;;;;;148.40;50.03;;;;;;;;;;5093373;28;20042;-68
2023/03/01 00:38:50;;;;;;;133.15;43.65;;;;;;;;;;5093204;28;20111;-70
2023/03/01 00:41:18;;;;;;;86.35;31.65;;;;;;;;;;5092829;28;20079;-69
2023/03/01 00:43:44;;;;;;;76.47;28.65;;;;;;;;;;5092899;28;20474;-69
2023/03/01 00:46:13;;;;;;;79.57;31.40;;;;;;;;;;5093002;28;20081;-68
2023/03/01 00:48:38;;;;;;;72.93;28.15;;;;;;;;;;5093214;28;20059;-68
2023/03/01 00:51:13;;;;;;;112.22;39.42;;;;;;;;;;5092980;28;20459;-68
2023/03/01 00:53:39;;;;;;;100.70;35.85;;;;;;;;;;5093091;28;20436;-68
2023/03/01 00:56:06;;;;;;;153.75;47.20;;;;;;;;;;5093007;28;20028;-68
2023/03/01 00:58:32;;;;;;;132.48;45.58;;;;;;;;;;5092984;28;20024;-68
2023/03/01 01:00:58;;;;;;;154.15;50.03;;;;;;;;;;5092748;28;20375;-68
2023/03/01 01:03:24;;;;;;;158.65;49.55;;;;;;;;;;5093008;28;20020;-68
2023/03/01 01:05:53;;;;;;;135.63;43.83;;;;;;;;;;5092689;28;20024;-68
2023/03/01 01:08:20;;;;;;;166.80;48.83;;;;;;;;;;5092862;28;20537;-68
2023/03/01 01:10:46;;;;;;;164.98;50.17;;;;;;;;;;5092989;28;20153;-69
2023/03/01 01:13:12;;;;;;;163.23;51.00;;;;;;;;;;5092573;28;20043;-69
2023/03/01 01:15:38;;;;;;;149.85;45.22;;;;;;;;;;5092514;28;20047;-68
2023/03/01 01:18:03;;;;;;;146.63;45.53;;;;;;;;;;5092689;28;20111;-68
2023/03/01 01:20:28;;;;;;;146.50;44.67;;;;;;;;;;5092744;28;20086;-68
2023/03/01 01:22:54;;;;;;;130.80;41.35;;;;;;;;;;5092636;28;20024;-68
2023/03/01 01:25:20;;;;;;;131.48;40.55;;;;;;;;;;5092585;28;20028;-67
2023/03/01 01:27:45;;;;;;;134.95;40.83;;;;;;;;;;5092632;28;20026;-68
2023/03/01 01:30:11;;;;;;;123.20;39.00;;;;;;;;;;5092395;28;20043;-68
2023/03/01 01:32:37;;;;;;;138.15;42.38;;;;;;;;;;5092569;28;20037;-68
2023/03/01 01:35:02;;;;;;;131.63;40.15;;;;;;;;;;5092371;28;20031;-69
2023/03/01 01:37:31;;;;;;;135.52;44.03;;;;;;;;;;5092541;28;20024;-67
2023/03/01 01:40:00;;;;;;;131.48;40.72;;;;;;;;;;5092528;28;20432;-67
2023/03/01 01:42:27;;;;;;;126.47;40.08;;;;;;;;;;5091327;28;20016;-68
2023/03/01 01:45:30;;;;;;;112.25;37.55;;;;;;;;;;5092255;28;20024;-67
2023/03/01 01:48:04;;;;;;;106.53;35.67;;;;;;;;;;5092410;28;20059;-68
2023/03/01 01:50:37;;;;;;;115.30;37.08;;;;;;;;;;5092447;28;20085;-67
2023/03/01 01:53:06;;;;;;;113.32;38.40;;;;;;;;;;5093064;28;20036;-68
2023/03/01 01:55:32;;;;;;;116.28;36.78;;;;;;;;;;5096513;28;20441;-67
2023/03/01 01:58:02;;;;;;;118.95;36.55;;;;;;;;;;5096117;28;20118;-68
2023/03/01 02:00:29;;;;;;;118.93;38.05;;;;;;;;;;5096425;28;20042;-67
2023/03/01 02:03:01;;;;;;;123.47;38.08;;;;;;;;;;5096292;28;20043;-67
2023/03/01 02:05:36;;;;;;;116.95;37.50;;;;;;;;;;5096131;28;20520;-67
2023/03/01 02:08:02;;;;;;;126.18;37.08;;;;;;;;;;5096219;28;20047;-68
2023/03/01 02:10:28;;;;;;;109.93;36.33;;;;;;;;;;5096141;28;20016;-67
2023/03/01 02:12:55;;;;;;;108.72;35.55;;;;;;;;;;5095766;28;20510;-68
2023/03/01 02:15:23;;;;;;;95.65;33.80;;;;;;;;;;5096031;28;20028;-68
2023/03/01 02:17:49;;;;;;;105.45;34.53;;;;;;;;;;5096018;28;20028;-68
2023/03/01 02:20:20;;;;;;;89.50;31.30;;;;;;;;;;5096211;28;20432;-67
2023/03/01 02:22:46;;;;;;;93.47;31.52;;;;;;;;;;5096053;28;20050;-68
2023/03/01 02:25:18;;;;;;;88.22;29.90;;;;;;;;;;5095735;28;20161;-67
2023/03/01 02:27:58;;;;;;;90.10;30.90;;;;;;;;;;5095473;28;20028;-68
2023/03/01 02:30:24;;;;;;;76.07;26.77;;;;;;;;;;5095873;28;20428;-67
2023/03/01 02:32:54;;;;;;;62.83;23.35;;;;;;;;;;5095741;28;20046;-68
2023/03/01 02:35:20;;;;;;;54.65;20.70;;;;;;;;;;5095595;28;20118;-67
2023/03/01 02:37:46;;;;;;;49.05;19.92;;;;;;;;;;5095566;28;20016;-67
2023/03/01 02:40:17;;;;;;;47.70;17.90;;;;;;;;;;5095652;28;20024;-67
2023/03/01 02:42:52;;;;;;;43.47;19.33;;;;;;;;;;5095453;28;20024;-67
2023/03/01 02:45:18;;;;;;;46.35;20.13;;;;;;;;;;5095602;28;20157;-67
2023/03/01 02:47:43;;;;;;;49.53;19.73;;;;;;;;;;5095540;28;20441;-67
2023/03/01 02:50:30;;;;;;;54.97;21.05;;;;;;;;;;5095526;28;20030;-67
2023/03/01 02:53:01;;;;;;;53.33;21.58;;;;;;;;;;5095282;28;20031;-67
2023/03/01 02:55:27;;;;;;;59.17;22.75;;;;;;;;;;5095393;28;20028;-67
2023/03/01 02:57:54;;;;;;;51.22;20.92;;;;;;;;;;5095103;28;20486;-67
2023/03/01 03:00:28;;;;;;;39.92;18.48;;;;;;;;;;5095240;28;20051;-67
2023/03/01 03:02:56;;;;;;;38.45;19.10;;;;;;;;;;5095198;28;20051;-68
2023/03/01 03:05:25;;;;;;;43.53;18.48;;;;;;;;;;5093910;28;20039;-68
2023/03/01 03:07:52;;;;;;;42.08;17.77;;;;;;;;;;5092407;28;20027;-67
2023/03/01 03:10:26;;;;;;;35.13;17.50;;;;;;;;;;5086265;28;20110;-69
2023/03/01 03:12:58;;;;;;;56.85;20.05;;;;;;;;;;5074708;28;20045;-68
2023/03/01 03:15:24;;;;;;;57.47;21.83;;;;;;;;;;5074590;28;20024;-67
2023/03/01 03:17:51;;;;;;;63.25;23.55;;;;;;;;;;5074685;28;20025;-67
2023/03/01 03:20:20;;;;;;;64.22;23.35;;;;;;;;;;5074786;28;20025;-69
2023/03/01 03:22:47;;;;;;;61.22;21.75;;;;;;;;;;5074509;28;20028;-67
2023/03/01 03:25:13;;;;;;;53.70;22.08;;;;;;;;;;5074209;28;20025;-67
2023/03/01 03:27:41;;;;;;;58.20;21.60;;;;;;;;;;5074469;28;20024;-68
2023/03/01 03:30:08;;;;;;;52.80;21.13;;;;;;;;;;5074564;28;20028;-67
2023/03/01 03:32:37;;;;;;;52.92;20.63;;;;;;;;;;5074318;28;20095;-67
2023/03/01 03:35:09;;;;;;;57.70;21.15;;;;;;;;;;5074219;28;20103;-68
2023/03/01 03:40:23;;;;;;;46.53;19.75;;;;;;;;;;5094586;28;20088;-67
2023/03/01 03:42:49;;;;;;;48.72;19.48;;;;;;;;;;5094211;28;20425;-68
2023/03/01 03:45:16;;;;;;;40.05;17.50;;;;;;;;;;5094327;28;20047;-69
2023/03/01 03:47:42;;;;;;;43.15;19.27;;;;;;;;;;5094445;28;20028;-68
2023/03/01 03:50:13;;;;;;;41.47;18.95;;;;;;;;;;5094388;28;20036;-67
2023/03/01 03:52:39;;;;;;;41.90;19.35;;;;;;;;;;5094255;28;20050;-68
2023/03/01 03:55:19;;;;;;;40.42;18.15;;;;;;;;;;5093685;28;20515;-67
2023/03/01 03:57:53;;;;;;;45.97;19.80;;;;;;;;;;5094076;28;20020;-67
2023/03/01 04:00:21;;;;;;;43.42;17.77;;;;;;;;;;5093975;28;20056;-67
2023/03/01 04:02:48;;;;;;;36.97;16.98;;;;;;;;;;5094090;28;20363;-67
2023/03/01 04:05:15;;;;;;;36.78;17.85;;;;;;;;;;5093933;28;20032;-67
2023/03/01 04:07:42;;;;;;;45.72;17.48;;;;;;;;;;5093654;28;20036;-67
2023/03/01 04:10:11;;;;;;;46.40;18.90;;;;;;;;;;5093746;28;20451;-67
2023/03/01 04:12:36;;;;;;;42.35;18.33;;;;;;;;;;5093636;28;20048;-67
2023/03/01 04:15:12;;;;;;;37.97;17.45;;;;;;;;;;5093679;28;20028;-67
2023/03/01 04:17:45;;;;;;;42.58;18.25;;;;;;;;;;5093562;28;20458;-66
2023/03/01 04:20:26;;;;;;;41.05;18.23;;;;;;;;;;5093768;28;20392;-66
2023/03/01 04:22:57;;;;;;;41.70;17.15;;;;;;;;;;5093477;28;20020;-67
2023/03/01 04:25:23;;;;;;;37.75;17.48;;;;;;;;;;5093699;28;20394;-67
2023/03/01 04:27:49;;;;;;;41.10;17.25;;;;;;;;;;5075169;28;20032;-68
2023/03/01 04:30:15;;;;;;;36.25;17.38;;;;;;;;;;5093551;28;20466;-67
2023/03/01 04:32:40;;;;;;;43.75;18.88;;;;;;;;;;5093527;28;20024;-67
2023/03/01 04:35:06;;;;;;;37.55;17.35;;;;;;;;;;5093226;28;20061;-67
2023/03/01 04:37:31;;;;;;;39.95;15.77;;;;;;;;;;5093049;28;20433;-66
2023/03/01 04:39:57;;;;;;;38.33;16.33;;;;;;;;;;5093302;28;20115;-68
2023/03/01 04:42:23;;;;;;;36.00;15.93;;;;;;;;;;5093096;28;20089;-67
2023/03/01 04:44:51;;;;;;;40.78;16.13;;;;;;;;;;5093401;28;20600;-67
2023/03/01 04:47:16;;;;;;;38.72;16.17;;;;;;;;;;5093095;28;20382;-67
2023/03/01 04:49:42;;;;;;;32.65;14.70;;;;;;;;;;5093235;28;20027;-67
2023/03/01 04:52:09;;;;;;;32.22;15.63;;;;;;;;;;5092946;28;20036;-68
2023/03/01 04:54:35;;;;;;;37.83;15.68;;;;;;;;;;5093015;28;20099;-67
2023/03/01 04:57:02;;;;;;;40.17;17.58;;;;;;;;;;5092982;28;20028;-66
2023/03/01 04:59:28;;;;;;;33.58;14.73;;;;;;;;;;5093022;28;20027;-69
2023/03/01 05:02:00;;;;;;;37.85;15.75;;;;;;;;;;5092965;28;20154;-67
2023/03/01 05:04:25;;;;;;;27.10;12.25;;;;;;;;;;5091772;28;20575;-67
2023/03/01 05:06:51;;;;;;;22.80;11.57;;;;;;;;;;5092600;28;20107;-68
2023/03/01 05:09:16;;;;;;;35.00;14.57;;;;;;;;;;5092806;28;20024;-68
2023/03/01 05:11:42;;;;;;;28.40;14.20;;;;;;;;;;5092687;28;20031;-68
2023/03/01 05:14:09;;;;;;;31.50;13.95;;;;;;;;;;5092508;28;20173;-67
2023/03/01 05:16:36;;;;;;;34.83;13.95;;;;;;;;;;5092680;28;20093;-68
2023/03/01 05:19:11;;;;;;;33.60;14.15;;;;;;;;;;5092605;28;20028;-68
2023/03/01 05:22:01;;;;;;;58.65;21.02;;;;;;;;;;5092390;28;20032;-68
2023/03/01 05:24:25;;;;;;;40.70;16.23;;;;;;;;;;5092541;28;20032;-69
2023/03/01 05:26:53;;;;;;;28.88;12.00;;;;;;;;;;5092618;28;20039;-66
2023/03/01 05:29:26;;;;;;;28.88;12.82;;;;;;;;;;5091856;28;20499;-67
2023/03/01 05:31:57;;;;;;;36.22;13.18;;;;;;;;;;5092469;28;20082;-67
2023/03/01 05:34:28;;;;;;;30.25;13.00;;;;;;;;;;5092524;28;20069;-67
2023/03/01 05:36:54;;;;;;;32.78;13.27;;;;;;;;;;5092315;28;20024;-68
2023/03/01 05:39:22;;;;;;;37.38;14.95;;;;;;;;;;5092410;28;20046;-68
2023/03/01 05:41:48;;;;;;;31.40;12.10;;;;;;;;;;5092305;28;20024;-67
2023/03/01 05:44:13;;;;;;;39.10;14.13;;;;;;;;;;5092639;28;20360;-68
2023/03/01 05:46:39;;;;;;;33.17;13.52;;;;;;;;;;5092569;28;20073;-68
2023/03/01 05:49:05;;;;;;;33.03;12.70;;;;;;;;;;5092354;28;20108;-69
2023/03/01 05:51:30;;;;;;;26.58;12.65;;;;;;;;;;5092326;28;20506;-67
2023/03/01 05:53:56;;;;;;;26.42;11.10;;;;;;;;;;5092382;28;20028;-68
2023/03/01 05:56:22;;;;;;;27.05;11.77;;;;;;;;;;5092309;28;20024;-67
2023/03/01 05:58:50;;;;;;;33.65;13.52;;;;;;;;;;5092319;28;20036;-67
2023/03/01 06:01:15;;;;;;;26.75;11.98;;;;;;;;;;5092118;28;20040;-66
2023/03/01 06:03:41;;;;;;;24.38;10.90;;;;;;;;;;5092019;28;20020;-67
2023/03/01 06:06:07;;;;;;;28.05;11.43;;;;;;;;;;5091840;28;20028;-67
2023/03/01 06:08:32;;;;;;;24.02;10.13;;;;;;;;;;5091988;28;20390;-67
2023/03/01 06:10:58;;;;;;;24.00;10.32;;;;;;;;;;5092116;28;20491;-67
2023/03/01 06:13:24;;;;;;;34.28;15.07;;;;;;;;;;5091564;28;20122;-68
2023/03/01 06:15:49;;;;;;;34.78;14.18;;;;;;;;;;5091885;28;20024;-67
2023/03/01 06:18:15;;;;;;;39.47;15.30;;;;;;;;;;5092054;28;20026;-66
2023/03/01 06:20:41;;;;;;;35.63;14.82;;;;;;;;;;5091852;28;20016;-66
2023/03/01 06:23:06;;;;;;;30.85;14.00;;;;;;;;;;5092009;28;20051;-67
2023/03/01 06:25:32;;;;;;;34.38;13.55;;;;;;;;;;5092181;28;20102;-67
2023/03/01 06:27:57;;;;;;;36.05;13.85;;;;;;;;;;5091844;28;20469;-66
2023/03/01 06:30:24;;;;;;;34.97;12.15;;;;;;;;;;5091469;28;20107;-67
2023/03/01 06:32:50;;;;;;;33.50;14.02;;;;;;;;;;5092028;28;20031;-66
2023/03/01 06:35:17;;;;;;;32.50;12.25;;;;;;;;;;5091508;28;20036;-68
2023/03/01 06:37:43;;;;;;;28.65;12.98;;;;;;;;;;5091747;28;20107;-69
2023/03/01 06:40:11;;;;;;;26.70;12.45;;;;;;;;;;5087120;28;20115;-69
2023/03/01 06:42:38;;;;;;;28.65;12.73;;;;;;;;;;5095013;28;20060;-66
2023/03/01 06:45:05;;;;;;;33.20;13.07;;;;;;;;;;5094966;28;20425;-68
2023/03/01 06:47:30;;;;;;;35.22;14.27;;;;;;;;;;5075226;28;20375;-67
2023/03/01 06:49:56;;;;;;;33.85;12.98;;;;;;;;;;5074965;28;20031;-67
2023/03/01 06:52:21;;;;;;;29.58;12.45;;;;;;;;;;5075047;28;20021;-67
2023/03/01 06:54:47;;;;;;;30.50;11.32;;;;;;;;;;5074840;28;20027;-66
2023/03/01 06:57:12;;;;;;;25.00;10.27;;;;;;;;;;5074669;28;20495;-66
2023/03/01 06:59:37;;;;;;;21.90;10.45;;;;;;;;;;5075096;28;20480;-66
2023/03/01 07:02:03;;;;;;;20.15;9.45;;;;;;;;;;5075041;28;20115;-66
2023/03/01 07:04:30;;;;;;;24.50;9.85;;;;;;;;;;5074466;28;20106;-66
2023/03/01 07:06:55;;;;;;;19.83;9.63;;;;;;;;;;5087841;28;20032;-67
2023/03/01 07:09:22;;;;;;;17.85;8.70;;;;;;;;;;5094988;28;20035;-68
2023/03/01 07:11:48;;;;;;;17.98;8.40;;;;;;;;;;5094970;28;20020;-66
2023/03/01 07:14:14;;;;;;;17.95;9.00;;;;;;;;;;5094757;28;20119;-67
2023/03/01 07:16:39;;;;;;;17.08;8.85;;;;;;;;;;5094579;28;20432;-67
2023/03/01 07:19:05;;;;;;;16.92;8.70;;;;;;;;;;5094589;28;20024;-66
2023/03/01 07:21:31;;;;;;;15.52;8.05;;;;;;;;;;5094677;28;20028;-66
2023/03/01 07:23:57;;;;;;;24.83;8.35;;;;;;;;;;5094669;28;20103;-66
2023/03/01 07:26:22;;;;;;;17.80;7.57;;;;;;;;;;5094536;28;20070;-67
2023/03/01 07:28:48;;;;;;;18.67;7.50;;;;;;;;;;5094685;28;20069;-66
2023/03/01 07:31:13;;;;;;;15.20;8.20;;;;;;;;;;5094834;28;20635;-66
2023/03/01 07:33:38;;;;;;;16.85;8.18;;;;;;;;;;5094444;28;20055;-67
2023/03/01 07:36:05;;;;;;;17.98;9.40;;;;;;;;;;5094430;28;20107;-67
2023/03/01 07:38:30;;;;;;;17.92;8.35;;;;;;;;;;5094305;28;20020;-67
2023/03/01 07:41:03;;;;;;;15.35;8.23;;;;;;;;;;5094300;28;20031;-67
2023/03/01 07:43:30;;;;;;;14.77;7.70;;;;;;;;;;5094416;28;20059;-66
2023/03/01 07:46:00;;;;;;;15.63;8.70;;;;;;;;;;5094140;28;20052;-66
2023/03/01 07:48:25;;;;;;;16.30;8.00;;;;;;;;;;5093750;28;20438;-67
2023/03/01 07:50:50;;;;;;;14.93;8.25;;;;;;;;;;5091669;28;20056;-66
2023/03/01 07:53:16;;;;;;;16.08;8.50;;;;;;;;;;5073833;28;20498;-67
2023/03/01 07:55:41;;;;;;;16.10;8.48;;;;;;;;;;5089290;28;20031;-66
2023/03/01 07:58:07;;;;;;;17.25;8.30;;;;;;;;;;5094057;28;20039;-67
2023/03/01 08:00:32;;;;;;;18.45;8.73;;;;;;;;;;5093621;28;20024;-67
2023/03/01 08:03:01;;;;;;;15.07;7.38;;;;;;;;;;5093743;28;20031;-66
2023/03/01 08:05:28;;;;;;;15.38;8.23;;;;;;;;;;5093559;28;20115;-66
2023/03/01 08:07:53;;;;;;;14.38;7.78;;;;;;;;;;5093452;28;20041;-67
2023/03/01 08:10:19;;;;;;;15.98;7.25;;;;;;;;;;5093789;28;20106;-67
2023/03/01 08:12:44;;;;;;;15.88;8.20;;;;;;;;;;5093727;28;20044;-67
2023/03/01 08:15:11;;;;;;;18.38;8.05;;;;;;;;;;5093326;28;20026;-67
2023/03/01 08:17:36;;;;;;;14.23;7.68;;;;;;;;;;5093742;28;20020;-68
2023/03/01 08:20:05;;;;;;;12.82;7.68;;;;;;;;;;5093839;28;20031;-66
2023/03/01 08:22:31;;;;;;;18.87;8.00;;;;;;;;;;5093604;28;20035;-69
2023/03/01 08:24:56;;;;;;;15.93;7.82;;;;;;;;;;5093612;28;20360;-66
2023/03/01 08:27:22;;;;;;;15.70;8.02;;;;;;;;;;5089623;28;20378;-66
2023/03/01 08:29:47;;;;;;;15.35;7.43;;;;;;;;;;5093366;28;20471;-66
2023/03/01 08:32:13;;;;;;;13.40;7.32;;;;;;;;;;5093441;28;20028;-67
2023/03/01 08:34:38;;;;;;;10.93;5.68;;;;;;;;;;5093363;28;20031;-69
2023/03/01 08:37:04;;;;;;;10.52;5.38;;;;;;;;;;5091931;28;20552;-67
2023/03/01 08:39:29;;;;;;;10.98;5.47;;;;;;;;;;5093175;28;20020;-67
2023/03/01 08:41:54;;;;;;;11.30;4.78;;;;;;;;;;5093194;28;20119;-68
2023/03/01 08:44:23;;;;;;;6.75;4.35;;;;;;;;;;5093076;28;20024;-67
2023/03/01 08:46:51;;;;;;;8.65;4.50;;;;;;;;;;5093252;28;20035;-67
2023/03/01 08:49:18;;;;;;;8.43;3.92;;;;;;;;;;5093189;28;20514;-67
2023/03/01 08:51:45;;;;;;;8.48;4.70;;;;;;;;;;5093104;28;20024;-67
2023/03/01 08:54:13;;;;;;;9.90;4.50;;;;;;;;;;5093189;28;20036;-69
2023/03/01 08:56:38;;;;;;;8.27;3.38;;;;;;;;;;5093143;28;20036;-69
2023/03/01 08:59:04;;;;;;;8.57;3.83;;;;;;;;;;5092843;28;20020;-67
2023/03/01 09:01:29;;;;;;;19.67;8.68;;;;;;;;;;5092990;28;20097;-68
2023/03/01 09:03:55;;;;;;;7.72;3.38;;;;;;;;;;5092165;28;20125;-67
2023/03/01 09:06:21;;;;;;;24.30;15.70;;;;;;;;;;5092605;28;20028;-67
2023/03/01 09:08:48;;;;;;;14.43;6.70;;;;;;;;;;5092741;28;20024;-68
2023/03/01 09:11:19;;;;;;;7.30;3.95;;;;;;;;;;5092887;28;20032;-67
2023/03/01 09:13:46;;;;;;;20.33;9.40;;;;;;;;;;5092345;28;20406;-67
2023/03/01 09:16:14;;;;;;;18.83;7.30;;;;;;;;;;5092889;28;20028;-67
2023/03/01 09:18:40;;;;;;;11.52;5.00;;;;;;;;;;5092858;28;20035;-67
2023/03/01 09:21:11;;;;;;;5.90;3.80;;;;;;;;;;5092596;28;20024;-67
2023/03/01 09:23:43;;;;;;;8.20;3.80;;;;;;;;;;5092620;28;20028;-68
2023/03/01 09:26:16;;;;;;;7.25;4.38;;;;;;;;;;5092664;28;20025;-68
2023/03/01 09:28:41;;;;;;;15.55;4.35;;;;;;;;;;5092241;28;20038;-67
2023/03/01 09:31:07;;;;;;;8.93;4.38;;;;;;;;;;5092671;28;20024;-67
2023/03/01 09:33:33;;;;;;;10.68;5.20;;;;;;;;;;5092616;28;20057;-66
2023/03/01 09:36:04;;;;;;;9.60;4.68;;;;;;;;;;5090129;28;20398;-65
2023/03/01 09:38:30;;;;;;;6.10;4.07;;;;;;;;;;5083718;28;20031;-66
2023/03/01 09:40:56;;;;;;;22.02;4.93;;;;;;;;;;5092516;28;20099;-66
2023/03/01 09:43:41;;;;;;;5.90;3.35;;;;;;;;;;5092265;28;20063;-66
2023/03/01 09:46:11;;;;;;;11.15;3.65;;;;;;;;;;5092627;28;20036;-66
2023/03/01 09:48:51;;;;;;;12.67;5.17;;;;;;;;;;5092292;28;20496;-65
2023/03/01 09:51:29;;;;;;;8.40;3.83;;;;;;;;;;5092413;28;20333;-67
2023/03/01 09:53:56;;;;;;;9.80;4.00;;;;;;;;;;5092487;28;20035;-67
2023/03/01 09:56:30;;;;;;;10.25;4.10;;;;;;;;;;5092098;28;20077;-66
2023/03/01 09:59:01;;;;;;;6.38;3.20;;;;;;;;;;5092359;28;20471;-66
2023/03/01 10:01:41;;;;;;;6.43;4.00;;;;;;;;;;5092329;28;20032;-65
2023/03/01 10:04:25;;;;;;;6.80;3.55;;;;;;;;;;5092566;28;20478;-66
2023/03/01 10:07:05;;;;;;;7.78;4.07;;;;;;;;;;5092079;28;20462;-66
2023/03/01 10:09:34;;;;;;;14.80;3.88;;;;;;;;;;5092154;28;20024;-66
2023/03/01 10:12:02;;;;;;;17.38;5.80;;;;;;;;;;5092176;28;20031;-66
2023/03/01 10:14:44;;;;;;;9.00;4.20;;;;;;;;;;5093362;28;20048;-66
2023/03/01 10:17:22;;;;;;;21.35;4.65;;;;;;;;;;5096022;28;20035;-66
2023/03/01 10:19:47;;;;;;;8.23;3.63;;;;;;;;;;5092991;28;20521;-66
2023/03/01 10:22:17;;;;;;;18.63;5.07;;;;;;;;;;5094721;28;20055;-66
2023/03/01 10:24:43;;;;;;;;;;;;;;;;;;5096538;28;20382;-66
2023/03/01 10:27:21;;;;;;;13.70;5.47;;;;;;;;;;5095496;28;19923;-66
2023/03/01 10:30:11;;;;;;;14.40;4.28;;;;;;;;;;5094621;28;20486;-66
2023/03/01 10:32:36;;;;;;;22.33;8.00;;;;;;;;;;5078686;28;20070;-66
2023/03/01 10:35:19;;;;;;;14.65;6.18;;;;;;;;;;5090322;28;20450;-69
2023/03/01 10:38:17;;;;;;;10.88;4.00;;;;;;;;;;5095828;28;20406;-69
2023/03/01 10:40:54;;;;;;;7.55;3.78;;;;;;;;;;5013323;28;20040;-66
2023/03/01 10:43:21;;;;;;;6.35;3.47;;;;;;;;;;5013641;28;20034;-69
2023/03/01 10:45:47;;;;;;;8.25;3.75;;;;;;;;;;5013324;28;20436;-69
2023/03/01 10:48:25;;;;;;;12.93;3.53;;;;;;;;;;5013356;28;20065;-66
2023/03/01 10:51:06;;;;;;;7.00;4.00;;;;;;;;;;5016457;28;20033;-66
2023/03/01 10:53:40;;;;;;;11.57;4.65;;;;;;;;;;5032825;28;20049;-67
2023/03/01 10:56:09;;;;;;;14.98;6.43;;;;;;;;;;5032885;28;20041;-66
2023/03/01 10:58:36;;;;;;;9.68;4.60;;;;;;;;;;5032915;28;20491;-67
2023/03/01 11:01:22;;;;;;;16.77;6.75;;;;;;;;;;5033155;28;20029;-66
2023/03/01 11:04:05;;;;;;;8.38;4.90;;;;;;;;;;5022364;28;20038;-66
2023/03/01 11:06:31;;;;;;;12.85;4.88;;;;;;;;;;5030716;28;20037;-66
2023/03/01 11:08:56;;;;;;;11.57;5.45;;;;;;;;;;5032276;28;20040;-66
2023/03/01 11:11:34;;;;;;;12.93;4.97;;;;;;;;;;5031536;28;20503;-66
2023/03/01 11:14:05;;;;;;;11.50;4.78;;;;;;;;;;5031211;28;20516;-66
2023/03/01 11:16:36;;;;;;;9.77;4.85;;;;;;;;;;5057730;28;20044;-67
2023/03/01 11:19:14;;;;;;;9.05;4.57;;;;;;;;;;5074646;28;20483;-67
2023/03/01 11:21:42;;;;;;;11.02;5.32;;;;;;;;;;5074810;28;20032;-66
2023/03/01 11:24:14;;;;;;;12.20;4.95;;;;;;;;;;5081714;28;20028;-66
2023/03/01 11:26:44;;;;;;;9.68;4.90;;;;;;;;;;5093939;28;20028;-67
2023/03/01 11:29:30;;;;;;;11.00;5.18;;;;;;;;;;5094663;28;20043;-66
2023/03/01 11:32:01;;;;;;;7.22;3.95;;;;;;;;;;5094490;28;20432;-67
2023/03/01 11:35:11;;;;;;;9.98;4.63;;;;;;;;;;5094640;28;20474;-67
2023/03/01 11:37:57;;;;;;;10.57;3.85;;;;;;;;;;5012376;28;20042;-67
2023/03/01 11:40:27;;;;;;;8.43;4.47;;;;;;;;;;4996039;28;20528;-67
2023/03/01 11:43:18;;;;;;;8.68;5.00;;;;;;;;;;5012338;28;20107;-67
2023/03/01 11:46:08;;;;;;;13.10;4.43;;;;;;;;;;5012271;28;20069;-67
2023/03/01 11:48:38;;;;;;;8.45;3.80;;;;;;;;;;5012199;28;20444;-67
2023/03/01 11:51:14;;;;;;;9.40;4.63;;;;;;;;;;5011931;28;20117;-67
2023/03/01 11:54:21;;;;;;;6.63;4.38;;;;;;;;;;5012087;28;20472;-67
2023/03/01 11:56:55;;;;;;;8.27;4.22;;;;;;;;;;4953938;29;20382;-66
2023/03/01 11:59:59;;;;;;;14.68;5.05;;;;;;;;;;4953839;29;20599;-67
2023/03/01 12:02:44;;;;;;;10.25;5.05;;;;;;;;;;4934508;29;20071;-67
2023/03/01 12:05:35;;;;;;;9.70;4.57;;;;;;;;;;4934617;29;20399;-67
2023/03/01 12:08:17;;;;;;;9.15;5.65;;;;;;;;;;4895992;29;20047;-67
2023/03/01 12:10:49;;;;;;;6.78;4.10;;;;;;;;;;4896714;29;20291;-67
2023/03/01 12:13:27;;;;;;;11.15;4.32;;;;;;;;;;4907357;28;20054;-67
2023/03/01 12:16:13;;;;;;;7.65;4.40;;;;;;;;;;4972665;28;20045;-67
2023/03/01 12:18:54;;;;;;;6.78;3.92;;;;;;;;;;4972872;28;20038;-67
2023/03/01 12:21:48;;;;;;;8.18;4.50;;;;;;;;;;4972396;28;20043;-67
2023/03/01 12:24:33;;;;;;;8.38;4.15;;;;;;;;;;4972387;28;20038;-67
2023/03/01 12:27:12;;;;;;;7.55;4.05;;;;;;;;;;4972676;28;20141;-67
2023/03/01 12:29:52;;;;;;;8.13;4.50;;;;;;;;;;4972553;28;20031;-67
2023/03/01 12:32:18;;;;;;;9.10;4.50;;;;;;;;;;4972553;28;20121;-67
2023/03/01 12:34:56;;;;;;;8.52;4.30;;;;;;;;;;5030192;28;20112;-67
2023/03/01 12:37:29;;;;;;;5.65;3.88;;;;;;;;;;5030251;28;20109;-68
2023/03/01 12:40:13;;;;;;;9.07;4.28;;;;;;;;;;5029875;28;20542;-67
2023/03/01 12:42:51;;;;;;;10.43;4.20;;;;;;;;;;5029699;28;20029;-68
2023/03/01 12:45:55;;;;;;;7.57;3.75;;;;;;;;;;5057277;28;20032;-67
2023/03/01 12:48:26;;;;;;;10.85;4.50;;;;;;;;;;5073004;28;20601;-68
2023/03/01 12:50:52;;;;;;;;;;;;;;;;;;5073237;28;20028;-67
2023/03/01 12:53:31;;;;;;;11.18;4.47;;;;;;;;;;5072636;28;19917;-68
2023/03/01 12:56:02;;;;;;;18.38;5.63;;;;;;;;;;5072575;28;20131;-68
2023/03/01 12:58:39;;;;;;;8.57;3.92;;;;;;;;;;5072898;28;20107;-68
2023/03/01 13:01:40;;;;;;;12.00;4.97;;;;;;;;;;5083416;28;20425;-68
2023/03/01 13:04:28;;;;;;;7.50;3.97;;;;;;;;;;5092103;28;20047;-68
2023/03/01 13:07:15;;;;;;;7.07;4.10;;;;;;;;;;5092575;28;20028;-69
2023/03/01 13:10:01;;;;;;;10.25;6.18;;;;;;;;;;5092715;28;20131;-67
2023/03/01 13:13:08;;;;;;;8.25;3.80;;;;;;;;;;5092764;28;20016;-67
2023/03/01 13:15:35;;;;;;;9.82;3.83;;;;;;;;;;5030528;28;20160;-67
2023/03/01 13:18:14;;;;;;;14.10;4.45;;;;;;;;;;5030463;28;20045;-68
2023/03/01 13:20:43;;;;;;;10.85;4.30;;;;;;;;;;5030195;28;20484;-68
2023/03/01 13:23:23;;;;;;;8.32;3.90;;;;;;;;;;5030543;28;20477;-68
2023/03/01 13:26:11;;;;;;;7.75;3.95;;;;;;;;;;5030293;28;20030;-68
2023/03/01 13:28:46;;;;;;;8.15;4.25;;;;;;;;;;5030440;28;20108;-71
2023/03/01 13:31:20;;;;;;;7.97;3.97;;;;;;;;;;5030192;28;20056;-69
2023/03/01 13:33:53;;;;;;;9.27;4.03;;;;;;;;;;5030236;28;20508;-68
2023/03/01 13:36:48;;;;;;;9.05;4.85;;;;;;;;;;5030288;28;20044;-69
2023/03/01 13:39:23;;;;;;;8.23;4.35;;;;;;;;;;5023653;28;20472;-68
2023/03/01 13:41:51;;;;;;;16.23;5.00;;;;;;;;;;5030264;28;20018;-67
2023/03/01 13:44:22;;;;;;;10.35;4.80;;;;;;;;;;5030226;28;20040;-68
2023/03/01 13:46:49;;;;;;;9.77;4.70;;;;;;;;;;5075096;28;20028;-68
2023/03/01 13:49:18;;;;;;;8.55;4.60;;;;;;;;;;5093385;28;20107;-70
2023/03/01 13:51:47;;;;;;;15.05;4.75;;;;;;;;;;5096288;28;20019;-67
2023/03/01 13:54:15;;;;;;;11.48;5.07;;;;;;;;;;5096147;28;20032;-69
2023/03/01 13:56:41;;;;;;;10.10;4.78;;;;;;;;;;5096358;28;20071;-69
2023/03/01 13:59:16;;;;;;;8.85;4.32;;;;;;;;;;5096505;28;20052;-68
2023/03/01 14:01:42;;;;;;;11.35;5.30;;;;;;;;;;5096209;28;20039;-70
2023/03/01 14:04:23;;;;;;;9.20;5.60;;;;;;;;;;5095984;28;20020;-69
2023/03/01 14:06:49;;;;;;;8.95;4.95;;;;;;;;;;5086384;28;20040;-67
2023/03/01 14:09:24;;;;;;;11.88;5.93;;;;;;;;;;5083706;28;20432;-67
2023/03/01 14:12:16;;;;;;;12.32;6.15;;;;;;;;;;5089180;28;20077;-67
2023/03/01 14:14:52;;;;;;;10.65;5.60;;;;;;;;;;5085893;28;20388;-67
2023/03/01 14:17:54;;;;;;;15.05;5.43;;;;;;;;;;5078411;28;20105;-68
2023/03/01 14:20:23;;;;;;;13.98;6.82;;;;;;;;;;5073393;28;20032;-67
2023/03/01 14:22:52;;;;;;;11.80;6.03;;;;;;;;;;5072958;28;20448;-68
2023/03/01 14:25:37;;;;;;;11.95;5.20;;;;;;;;;;5073118;28;20048;-68
2023/03/01 14:28:14;;;;;;;11.85;6.57;;;;;;;;;;5093181;28;20504;-67
2023/03/01 14:30:45;;;;;;;13.20;6.55;;;;;;;;;;5092832;28;20493;-67
2023/03/01 14:33:33;;;;;;;15.75;7.32;;;;;;;;;;5092884;28;20027;-70
2023/03/01 14:36:01;;;;;;;15.57;6.18;;;;;;;;;;5093060;28;20028;-67
2023/03/01 14:38:36;;;;;;;12.95;6.47;;;;;;;;;;5093085;28;20100;-68
2023/03/01 14:41:11;;;;;;;9.60;6.07;;;;;;;;;;5092823;28;20024;-67
2023/03/01 14:43:40;;;;;;;10.27;6.32;;;;;;;;;;5092718;28;20027;-67
2023/03/01 14:46:06;;;;;;;14.77;5.88;;;;;;;;;;5092710;28;20036;-67
2023/03/01 14:48:32;;;;;;;10.93;5.72;;;;;;;;;;5092332;28;20030;-67
2023/03/01 14:50:59;;;;;;;11.15;5.40;;;;;;;;;;5087352;28;20028;-67